« Back
NWS Peachtree City, Ga » Text Product » MCN Terminal Aerodrome Forecast


Printer-friendly Version
Current Version              Previous Versions:   1  2  3  4  5  6  7  8  9  

Terminal Aerodrome Forecast

307
FTUS42 KFFC 250530
TAFMCN
TAF
KMCN 250530Z 2506/2606 28003KT P6SM SKC
     FM251500 24006KT P6SM FEW250
     FM251900 21009KT P6SM SCT250
     FM260300 24006KT P6SM OVC050=

USA.gov is the U.S. government's official web portal to all federal, state and local government web resources and services.